DLH048 EDDF-EDDV
Flight info
| Callsign | DLH048 |
|---|---|
| Flight time | 0h 34m |
| Altitude | 22000 |
| Route | MARUN3W/25C MARUN Y153 WRB WRB1Z |
| Aircraft | A319/M-SADE2E3FGIJ1LORWXYZHB1/LB1 |
Departure
| Time | 2026-05-07 08:03 |
|---|---|
| Airport | Frankfurt Main Airport (EDDF) |
Arrival
| Time | 2026-05-07 08:37 |
|---|---|
| Airport | Hannover Airport (EDDV) |
| Time | Latitude | Longitude | Altitude | Speed | Heading |
|---|---|---|---|---|---|
| 2026-05-07 07:04 | 50.04465 | 8.56485 | 360 ft | 0 kts | 159° |
| 2026-05-07 07:51 | 50.04476 | 8.56479 | 364 ft | 4 kts | 159° |
| 2026-05-07 07:52 | 50.04501 | 8.56465 | 360 ft | 4 kts | 163° |
| 2026-05-07 07:52 | 50.04526 | 8.56458 | 358 ft | 4 kts | 198° |
| 2026-05-07 07:52 | 50.04537 | 8.56468 | 364 ft | 1 kts | 249° |
| 2026-05-07 07:52 | 50.04530 | 8.56437 | 362 ft | 4 kts | 249° |
| 2026-05-07 07:53 | 50.04520 | 8.56398 | 356 ft | 4 kts | 249° |
| 2026-05-07 07:53 | 50.04516 | 8.56380 | 356 ft | 0 kts | 249° |
| 2026-05-07 07:57 | 50.04516 | 8.56379 | 356 ft | 0 kts | 249° |
| 2026-05-07 07:57 | 50.04509 | 8.56350 | 361 ft | 5 kts | 249° |
| 2026-05-07 07:57 | 50.04491 | 8.56281 | 357 ft | 10 kts | 249° |
| 2026-05-07 07:57 | 50.04460 | 8.56151 | 358 ft | 16 kts | 249° |
| 2026-05-07 07:58 | 50.04416 | 8.56010 | 358 ft | 8 kts | 235° |
| 2026-05-07 07:58 | 50.04372 | 8.56021 | 361 ft | 9 kts | 144° |
| 2026-05-07 07:58 | 50.04301 | 8.56087 | 355 ft | 14 kts | 137° |
| 2026-05-07 07:58 | 50.04265 | 8.56227 | 357 ft | 17 kts | 153° |
| 2026-05-07 07:59 | 50.04153 | 8.56297 | 357 ft | 14 kts | 143° |
| 2026-05-07 07:59 | 50.04153 | 8.56387 | 355 ft | 13 kts | 70° |
| 2026-05-07 07:59 | 50.04185 | 8.56517 | 361 ft | 13 kts | 68° |
| 2026-05-07 07:59 | 50.04214 | 8.56642 | 361 ft | 12 kts | 70° |
| 2026-05-07 08:00 | 50.04239 | 8.56751 | 358 ft | 10 kts | 70° |
| 2026-05-07 08:00 | 50.04261 | 8.56848 | 363 ft | 10 kts | 68° |
| 2026-05-07 08:00 | 50.04293 | 8.56973 | 361 ft | 15 kts | 71° |
| 2026-05-07 08:00 | 50.04330 | 8.57124 | 365 ft | 15 kts | 69° |
| 2026-05-07 08:01 | 50.04363 | 8.57281 | 363 ft | 16 kts | 78° |
| 2026-05-07 08:01 | 50.04343 | 8.57372 | 361 ft | 0 kts | 105° |
| 2026-05-07 08:01 | 50.04343 | 8.57374 | 361 ft | 2 kts | 96° |
| 2026-05-07 08:01 | 50.04426 | 8.57496 | 362 ft | 20 kts | 60° |
| 2026-05-07 08:02 | 50.04379 | 8.57661 | 365 ft | 17 kts | 153° |
| 2026-05-07 08:02 | 50.04264 | 8.57652 | 363 ft | 18 kts | 241° |
| 2026-05-07 08:02 | 50.04204 | 8.57405 | 367 ft | 48 kts | 250° |
| 2026-05-07 08:02 | 50.03990 | 8.56513 | 359 ft | 125 kts | 249° |
| 2026-05-07 08:03 | 50.03642 | 8.54993 | 592 ft | 158 kts | 252° |
| 2026-05-07 08:03 | 50.03243 | 8.53398 | 1316 ft | 161 kts | 251° |
| 2026-05-07 08:03 | 50.02827 | 8.51739 | 1954 ft | 172 kts | 252° |
| 2026-05-07 08:03 | 50.02271 | 8.49953 | 2389 ft | 199 kts | 237° |
| 2026-05-07 08:04 | 50.01172 | 8.48472 | 2992 ft | 217 kts | 208° |
| 2026-05-07 08:04 | 49.99714 | 8.47868 | 3956 ft | 220 kts | 188° |
| 2026-05-07 08:04 | 49.98192 | 8.47551 | 4863 ft | 223 kts | 189° |
| 2026-05-07 08:04 | 49.96638 | 8.47227 | 5690 ft | 228 kts | 189° |
| 2026-05-07 08:05 | 49.95063 | 8.46694 | 6382 ft | 242 kts | 197° |
| 2026-05-07 08:05 | 49.93387 | 8.45924 | 6973 ft | 257 kts | 199° |
| 2026-05-07 08:05 | 49.91779 | 8.44721 | 7832 ft | 260 kts | 224° |
| 2026-05-07 08:05 | 49.90819 | 8.42406 | 8720 ft | 259 kts | 255° |
| 2026-05-07 08:06 | 49.90652 | 8.39571 | 9399 ft | 270 kts | 278° |
| 2026-05-07 08:06 | 49.91258 | 8.36814 | 10304 ft | 275 kts | 301° |
| 2026-05-07 08:06 | 49.92633 | 8.34609 | 10728 ft | 301 kts | 328° |
| 2026-05-07 08:06 | 49.94717 | 8.33664 | 11022 ft | 330 kts | 356° |
| 2026-05-07 08:07 | 49.97074 | 8.34133 | 11441 ft | 350 kts | 9° |
| 2026-05-07 08:07 | 49.99440 | 8.34983 | 12174 ft | 357 kts | 13° |
| 2026-05-07 08:07 | 50.01885 | 8.35989 | 12982 ft | 361 kts | 14° |
| 2026-05-07 08:07 | 50.04292 | 8.37009 | 13773 ft | 365 kts | 14° |
| 2026-05-07 08:08 | 50.06756 | 8.38034 | 14527 ft | 366 kts | 13° |
| 2026-05-07 08:08 | 50.09200 | 8.39019 | 15560 ft | 361 kts | 13° |
| 2026-05-07 08:08 | 50.11639 | 8.39973 | 16357 ft | 363 kts | 12° |
| 2026-05-07 08:08 | 50.14102 | 8.40916 | 17142 ft | 365 kts | 13° |
| 2026-05-07 08:09 | 50.16582 | 8.41854 | 17855 ft | 369 kts | 12° |
| 2026-05-07 08:09 | 50.19091 | 8.42800 | 18531 ft | 373 kts | 12° |
| 2026-05-07 08:09 | 50.21626 | 8.43758 | 19130 ft | 377 kts | 13° |
| 2026-05-07 08:09 | 50.24190 | 8.44732 | 19750 ft | 380 kts | 12° |
| 2026-05-07 08:10 | 50.26769 | 8.45718 | 20398 ft | 384 kts | 12° |
| 2026-05-07 08:10 | 50.29375 | 8.46715 | 21014 ft | 388 kts | 13° |
| 2026-05-07 08:10 | 50.32007 | 8.47726 | 21632 ft | 391 kts | 12° |
| 2026-05-07 08:10 | 50.34658 | 8.48747 | 21935 ft | 393 kts | 13° |
| 2026-05-07 08:11 | 50.37336 | 8.49779 | 21994 ft | 404 kts | 13° |
| 2026-05-07 08:11 | 50.40119 | 8.50850 | 21988 ft | 421 kts | 13° |
| 2026-05-07 08:11 | 50.43032 | 8.51973 | 21986 ft | 433 kts | 13° |
| 2026-05-07 08:11 | 50.45953 | 8.53104 | 21986 ft | 437 kts | 13° |
| 2026-05-07 08:12 | 50.48906 | 8.54251 | 21988 ft | 437 kts | 13° |
| 2026-05-07 08:12 | 50.51865 | 8.55401 | 21986 ft | 438 kts | 13° |
| 2026-05-07 08:12 | 50.54816 | 8.56544 | 21985 ft | 438 kts | 13° |
| 2026-05-07 08:12 | 50.57778 | 8.57690 | 21983 ft | 438 kts | 13° |
| 2026-05-07 08:13 | 50.60742 | 8.58839 | 21981 ft | 438 kts | 13° |
| 2026-05-07 08:13 | 50.63702 | 8.59987 | 21977 ft | 438 kts | 13° |
| 2026-05-07 08:13 | 50.66662 | 8.61139 | 21975 ft | 438 kts | 13° |
| 2026-05-07 08:13 | 50.69618 | 8.62294 | 21977 ft | 438 kts | 13° |
| 2026-05-07 08:14 | 50.72543 | 8.63440 | 21978 ft | 439 kts | 13° |
| 2026-05-07 08:14 | 50.75506 | 8.64604 | 21981 ft | 439 kts | 13° |
| 2026-05-07 08:14 | 50.78472 | 8.65768 | 21978 ft | 438 kts | 13° |
| 2026-05-07 08:14 | 50.81425 | 8.66948 | 21977 ft | 438 kts | 15° |
| 2026-05-07 08:15 | 50.84297 | 8.68562 | 21974 ft | 439 kts | 21° |
| 2026-05-07 08:15 | 50.87136 | 8.70347 | 21975 ft | 439 kts | 21° |
| 2026-05-07 08:15 | 50.89974 | 8.72141 | 21976 ft | 439 kts | 21° |
| 2026-05-07 08:15 | 50.92809 | 8.73940 | 21976 ft | 439 kts | 21° |
| 2026-05-07 08:16 | 50.95649 | 8.75746 | 21982 ft | 439 kts | 21° |
| 2026-05-07 08:16 | 50.98484 | 8.77551 | 21981 ft | 439 kts | 21° |
| 2026-05-07 08:16 | 51.01318 | 8.79354 | 21974 ft | 439 kts | 21° |
| 2026-05-07 08:16 | 51.04158 | 8.81162 | 21969 ft | 439 kts | 21° |
| 2026-05-07 08:17 | 51.06996 | 8.82971 | 21972 ft | 440 kts | 21° |
| 2026-05-07 08:17 | 51.09848 | 8.84793 | 21770 ft | 442 kts | 21° |
| 2026-05-07 08:17 | 51.12700 | 8.86617 | 21501 ft | 441 kts | 21° |
| 2026-05-07 08:17 | 51.15547 | 8.88440 | 21242 ft | 439 kts | 21° |
| 2026-05-07 08:18 | 51.18377 | 8.90252 | 20988 ft | 438 kts | 21° |
| 2026-05-07 08:18 | 51.21195 | 8.92059 | 20727 ft | 436 kts | 21° |
| 2026-05-07 08:18 | 51.24010 | 8.93869 | 20470 ft | 435 kts | 22° |
| 2026-05-07 08:18 | 51.26816 | 8.95675 | 20219 ft | 435 kts | 22° |
| 2026-05-07 08:19 | 51.29624 | 8.97485 | 19967 ft | 434 kts | 22° |
| 2026-05-07 08:19 | 51.32417 | 8.99291 | 19720 ft | 433 kts | 22° |
| 2026-05-07 08:19 | 51.35201 | 9.01096 | 19474 ft | 431 kts | 22° |
| 2026-05-07 08:19 | 51.37976 | 9.02896 | 19223 ft | 430 kts | 22° |
| 2026-05-07 08:20 | 51.40745 | 9.04692 | 18985 ft | 428 kts | 22° |
| 2026-05-07 08:20 | 51.43505 | 9.06484 | 18740 ft | 427 kts | 22° |
| 2026-05-07 08:20 | 51.46220 | 9.08249 | 18509 ft | 426 kts | 22° |
| 2026-05-07 08:20 | 51.48964 | 9.10004 | 18269 ft | 424 kts | 19° |
| 2026-05-07 08:21 | 51.51794 | 9.11273 | 18005 ft | 422 kts | 11° |
| 2026-05-07 08:21 | 51.54692 | 9.11965 | 17734 ft | 420 kts | 7° |
| 2026-05-07 08:21 | 51.57583 | 9.12581 | 17465 ft | 418 kts | 7° |
| 2026-05-07 08:21 | 51.60455 | 9.13199 | 17198 ft | 416 kts | 7° |
| 2026-05-07 08:22 | 51.63318 | 9.13820 | 16931 ft | 414 kts | 7° |
| 2026-05-07 08:22 | 51.66162 | 9.14436 | 16669 ft | 412 kts | 7° |
| 2026-05-07 08:22 | 51.68996 | 9.15051 | 16410 ft | 410 kts | 7° |
| 2026-05-07 08:22 | 51.71812 | 9.15665 | 16149 ft | 406 kts | 7° |
| 2026-05-07 08:23 | 51.74595 | 9.16272 | 15898 ft | 403 kts | 7° |
| 2026-05-07 08:23 | 51.77368 | 9.16876 | 15644 ft | 401 kts | 7° |
| 2026-05-07 08:23 | 51.80112 | 9.17476 | 15220 ft | 394 kts | 7° |
| 2026-05-07 08:23 | 51.82819 | 9.18064 | 14524 ft | 392 kts | 7° |
| 2026-05-07 08:24 | 51.85515 | 9.18647 | 13785 ft | 390 kts | 7° |
| 2026-05-07 08:24 | 51.88183 | 9.19224 | 13045 ft | 383 kts | 7° |
| 2026-05-07 08:24 | 51.90773 | 9.19785 | 12154 ft | 377 kts | 7° |
| 2026-05-07 08:24 | 51.93362 | 9.20349 | 11234 ft | 372 kts | 8° |
| 2026-05-07 08:25 | 51.95902 | 9.20907 | 10255 ft | 368 kts | 8° |
| 2026-05-07 08:25 | 51.98406 | 9.21458 | 9806 ft | 357 kts | 8° |
| 2026-05-07 08:25 | 52.00796 | 9.21983 | 9681 ft | 336 kts | 8° |
| 2026-05-07 08:25 | 52.03029 | 9.22473 | 9541 ft | 313 kts | 8° |
| 2026-05-07 08:26 | 52.07135 | 9.23376 | 9277 ft | 284 kts | 8° |
| 2026-05-07 08:26 | 52.09058 | 9.23797 | 9145 ft | 276 kts | 8° |
| 2026-05-07 08:26 | 52.10951 | 9.24216 | 9012 ft | 274 kts | 8° |
| 2026-05-07 08:27 | 52.12833 | 9.24635 | 8882 ft | 273 kts | 8° |
| 2026-05-07 08:27 | 52.14716 | 9.25052 | 8750 ft | 272 kts | 8° |
| 2026-05-07 08:27 | 52.16590 | 9.25467 | 8616 ft | 271 kts | 8° |
| 2026-05-07 08:27 | 52.18453 | 9.25879 | 8486 ft | 270 kts | 8° |
| 2026-05-07 08:28 | 52.20321 | 9.26290 | 8354 ft | 271 kts | 8° |
| 2026-05-07 08:28 | 52.22161 | 9.26696 | 8226 ft | 270 kts | 8° |
| 2026-05-07 08:28 | 52.23996 | 9.27278 | 8096 ft | 268 kts | 17° |
| 2026-05-07 08:28 | 52.25771 | 9.28194 | 7968 ft | 267 kts | 18° |
| 2026-05-07 08:29 | 52.27520 | 9.29090 | 7633 ft | 260 kts | 18° |
| 2026-05-07 08:29 | 52.29224 | 9.29957 | 7315 ft | 251 kts | 18° |
| 2026-05-07 08:29 | 52.30857 | 9.30786 | 7044 ft | 241 kts | 18° |
| 2026-05-07 08:29 | 52.32426 | 9.31583 | 6758 ft | 230 kts | 18° |
| 2026-05-07 08:30 | 52.33950 | 9.32160 | 6396 ft | 223 kts | 7° |
| 2026-05-07 08:30 | 52.35484 | 9.32288 | 5945 ft | 219 kts | 4° |
| 2026-05-07 08:30 | 52.37000 | 9.32381 | 5464 ft | 217 kts | 4° |
| 2026-05-07 08:30 | 52.38501 | 9.32478 | 5020 ft | 215 kts | 4° |
| 2026-05-07 08:31 | 52.39999 | 9.32577 | 4496 ft | 216 kts | 5° |
| 2026-05-07 08:31 | 52.41504 | 9.32677 | 4070 ft | 214 kts | 5° |
| 2026-05-07 08:31 | 52.42959 | 9.32772 | 3869 ft | 206 kts | 5° |
| 2026-05-07 08:31 | 52.44380 | 9.32868 | 3658 ft | 202 kts | 6° |
| 2026-05-07 08:32 | 52.45663 | 9.33515 | 3500 ft | 188 kts | 41° |
| 2026-05-07 08:32 | 52.46303 | 9.35238 | 3372 ft | 180 kts | 82° |
| 2026-05-07 08:32 | 52.46226 | 9.37274 | 3260 ft | 179 kts | 92° |
| 2026-05-07 08:32 | 52.46206 | 9.39299 | 3149 ft | 177 kts | 89° |
| 2026-05-07 08:33 | 52.46178 | 9.41312 | 3055 ft | 177 kts | 90° |
| 2026-05-07 08:33 | 52.46135 | 9.43327 | 3008 ft | 176 kts | 91° |
| 2026-05-07 08:33 | 52.46087 | 9.45334 | 2891 ft | 177 kts | 91° |
| 2026-05-07 08:33 | 52.46036 | 9.47331 | 2716 ft | 172 kts | 90° |
| 2026-05-07 08:34 | 52.45987 | 9.49257 | 2467 ft | 166 kts | 90° |
| 2026-05-07 08:34 | 52.45939 | 9.51113 | 2238 ft | 161 kts | 90° |
| 2026-05-07 08:34 | 52.45892 | 9.52917 | 2025 ft | 156 kts | 90° |
| 2026-05-07 08:34 | 52.45846 | 9.54656 | 1827 ft | 147 kts | 90° |
| 2026-05-07 08:35 | 52.45804 | 9.56246 | 1615 ft | 132 kts | 90° |
| 2026-05-07 08:35 | 52.45767 | 9.57691 | 1425 ft | 125 kts | 90° |
| 2026-05-07 08:35 | 52.45729 | 9.59085 | 1236 ft | 122 kts | 89° |
| 2026-05-07 08:35 | 52.45696 | 9.60470 | 1052 ft | 121 kts | 92° |
| 2026-05-07 08:36 | 52.45659 | 9.61859 | 896 ft | 123 kts | 90° |
| 2026-05-07 08:36 | 52.45624 | 9.63288 | 760 ft | 129 kts | 90° |
| 2026-05-07 08:36 | 52.45582 | 9.64753 | 563 ft | 129 kts | 89° |
| 2026-05-07 08:36 | 52.45542 | 9.66208 | 382 ft | 128 kts | 91° |
| 2026-05-07 08:37 | 52.45506 | 9.67661 | 237 ft | 126 kts | 91° |
| 2026-05-07 08:37 | 52.45462 | 9.69006 | 185 ft | 101 kts | 92° |
| 2026-05-07 08:37 | 52.45437 | 9.69878 | 182 ft | 50 kts | 93° |
| 2026-05-07 08:37 | 52.45423 | 9.70357 | 181 ft | 39 kts | 92° |
| 2026-05-07 08:38 | 52.45426 | 9.70625 | 183 ft | 17 kts | 65° |
| 2026-05-07 08:38 | 52.45535 | 9.70672 | 179 ft | 17 kts | 2° |
| 2026-05-07 08:38 | 52.45637 | 9.70635 | 179 ft | 16 kts | 310° |
| 2026-05-07 08:38 | 52.45652 | 9.70447 | 179 ft | 17 kts | 272° |
| 2026-05-07 08:39 | 52.45659 | 9.70243 | 179 ft | 18 kts | 274° |
| 2026-05-07 08:39 | 52.45666 | 9.70027 | 179 ft | 20 kts | 271° |
| 2026-05-07 08:39 | 52.45673 | 9.69828 | 179 ft | 17 kts | 273° |
| 2026-05-07 08:39 | 52.45674 | 9.69634 | 179 ft | 18 kts | 269° |
| 2026-05-07 08:40 | 52.45722 | 9.69483 | 179 ft | 15 kts | 333° |
| 2026-05-07 08:40 | 52.45760 | 9.69373 | 179 ft | 10 kts | 281° |
| 2026-05-07 08:40 | 52.45809 | 9.69366 | 179 ft | 9 kts | 33° |
| 2026-05-07 08:40 | 52.45837 | 9.69391 | 179 ft | 1 kts | 30° |
| 2026-05-07 08:41 | 52.45839 | 9.69394 | 179 ft | 0 kts | 30° |